Time;durP1;ratioP1;P1;durP2;ratioP2;P2;SDS_P1;SDS_P2;PMS_P1;PMS_P2;Temp;Humidity;BMP_temperature;BMP_pressure;BME280_temperature;BME280_humidity;BME280_pressure;Samples;Min_cycle;Max_cycle;Signal;HPM_P1;HPM_P2
2023/07/22 00:01:02;;;;;;;1.55;1.45;;;23.00;61.90;;;;;;4978599;28;20189;-72
2023/07/22 00:03:28;;;;;;;1.48;1.38;;;23.00;61.90;;;;;;4976133;28;20217;-72
2023/07/22 00:06:06;;;;;;;1.50;1.40;;;22.90;61.70;;;;;;4972013;28;20337;-72
2023/07/22 00:08:33;;;;;;;1.25;1.15;;;23.00;61.80;;;;;;4973745;28;20196;-72
2023/07/22 00:10:59;;;;;;;1.20;1.10;;;22.90;61.60;;;;;;4991612;28;20188;-72
2023/07/22 00:13:29;;;;;;;2.03;1.52;;;23.00;61.80;;;;;;4976312;28;20221;-73
2023/07/22 00:15:56;;;;;;;1.50;1.40;;;22.90;61.60;;;;;;4987253;28;20204;-72
2023/07/22 00:18:23;;;;;;;1.40;1.30;;;23.00;62.50;;;;;;4958954;28;20581;-72
2023/07/22 00:20:50;;;;;;;1.52;1.42;;;22.90;61.60;;;;;;4955838;28;20197;-72
2023/07/22 00:23:17;;;;;;;1.13;1.10;;;22.90;61.60;;;;;;4971879;28;20300;-72
2023/07/22 00:25:42;;;;;;;2.05;1.33;;;22.90;61.60;;;;;;4989863;28;20192;-73
2023/07/22 00:28:08;;;;;;;1.50;1.40;;;22.90;61.50;;;;;;4987221;28;20267;-72
2023/07/22 00:30:34;;;;;;;1.63;1.20;;;22.90;61.60;;;;;;4955495;28;20200;-72
2023/07/22 00:33:00;;;;;;;1.50;1.40;;;22.90;61.60;;;;;;4956172;28;20221;-72
2023/07/22 00:35:26;;;;;;;1.45;1.35;;;22.90;61.60;;;;;;4974578;28;20277;-72
2023/07/22 00:37:52;;;;;;;1.73;1.50;;;22.90;61.60;;;;;;4957860;28;20181;-72
2023/07/22 00:40:19;;;;;;;1.30;1.20;;;22.90;61.60;;;;;;4974931;28;20204;-72
2023/07/22 00:42:44;;;;;;;1.30;1.20;;;22.90;61.60;;;;;;4989179;28;20224;-72
2023/07/22 00:45:11;;;;;;;1.55;1.45;;;22.90;61.70;;;;;;4974227;28;20255;-72
2023/07/22 00:47:39;;;;;;;1.50;1.40;;;22.90;61.60;;;;;;4972789;28;20213;-73
2023/07/22 00:50:07;;;;;;;1.67;1.58;;;22.90;61.60;;;;;;4981380;28;20196;-73
2023/07/22 00:52:34;;;;;;;1.48;1.38;;;22.90;61.70;;;;;;4964954;28;20248;-73
2023/07/22 00:55:01;;;;;;;1.50;1.40;;;22.90;61.60;;;;;;4979335;28;20205;-72
2023/07/22 00:57:28;;;;;;;1.45;1.20;;;22.90;61.60;;;;;;4978339;28;20189;-72
2023/07/22 00:59:54;;;;;;;1.60;1.30;;;22.90;61.60;;;;;;4979588;28;20244;-72
2023/07/22 01:02:21;;;;;;;1.20;1.10;;;22.90;61.70;;;;;;4982881;28;20197;-72
2023/07/22 01:04:48;;;;;;;1.50;1.40;;;22.90;62.40;;;;;;4986181;28;20216;-72
2023/07/22 01:07:15;;;;;;;1.45;1.35;;;22.90;61.50;;;;;;4970131;28;20186;-72
2023/07/22 01:09:42;;;;;;;1.35;1.30;;;22.90;61.60;;;;;;4970338;28;20277;-72
2023/07/22 01:12:10;;;;;;;1.50;1.40;;;22.90;61.60;;;;;;4984195;28;20200;-71
2023/07/22 01:14:38;;;;;;;1.38;1.27;;;22.90;61.50;;;;;;4960308;28;20224;-72
2023/07/22 01:17:08;;;;;;;1.40;1.30;;;22.90;61.50;;;;;;4973275;28;20189;-72
2023/07/22 01:19:34;;;;;;;1.50;1.40;;;22.90;61.50;;;;;;4982149;28;20221;-72
2023/07/22 01:22:05;;;;;;;1.40;1.30;;;22.80;61.50;;;;;;4974199;28;20205;-72
2023/07/22 01:24:32;;;;;;;1.20;1.10;;;22.90;61.50;;;;;;4963004;28;20240;-72
2023/07/22 01:26:58;;;;;;;1.42;1.33;;;22.90;61.60;;;;;;4986091;28;20200;-72
2023/07/22 01:29:25;;;;;;;1.40;1.30;;;22.80;61.60;;;;;;4970034;28;20696;-72
2023/07/22 01:31:54;;;;;;;1.27;1.17;;;22.80;61.40;;;;;;4981649;28;20193;-72
2023/07/22 01:34:21;;;;;;;1.42;1.33;;;22.80;61.50;;;;;;4974656;28;20247;-72
2023/07/22 01:36:49;;;;;;;1.80;1.30;;;22.80;61.50;;;;;;4979240;28;20213;-72
2023/07/22 01:39:16;;;;;;;1.38;1.10;;;22.80;61.50;;;;;;4976661;28;20185;-72
2023/07/22 01:41:44;;;;;;;1.95;1.30;;;22.80;61.50;;;;;;4988165;28;20215;-72
2023/07/22 01:44:13;;;;;;;1.52;1.42;;;22.80;61.50;;;;;;4976132;28;20208;-72
2023/07/22 01:46:39;;;;;;;1.40;1.30;;;22.80;61.50;;;;;;4971420;28;20205;-72
2023/07/22 01:49:10;;;;;;;1.42;1.33;;;22.90;61.60;;;;;;4970412;28;20682;-72
2023/07/22 01:51:42;;;;;;;1.50;1.40;;;22.80;61.40;;;;;;4970429;28;20239;-72
2023/07/22 01:54:09;;;;;;;1.20;1.10;;;22.80;61.50;;;;;;4980503;28;20268;-72
2023/07/22 01:56:36;;;;;;;1.40;1.30;;;22.80;61.50;;;;;;4983711;28;20181;-73
2023/07/22 01:59:02;;;;;;;1.10;1.10;;;22.80;61.40;;;;;;4986350;28;20196;-72
2023/07/22 02:01:28;;;;;;;1.38;1.27;;;22.80;61.40;;;;;;4962027;28;20185;-72
2023/07/22 02:03:55;;;;;;;1.23;1.13;;;22.80;61.40;;;;;;4973233;28;20292;-73
2023/07/22 02:06:21;;;;;;;1.27;1.17;;;22.80;61.40;;;;;;4986777;28;20185;-73
2023/07/22 02:08:47;;;;;;;1.50;1.40;;;22.80;61.40;;;;;;4959128;28;20276;-73
2023/07/22 02:11:13;;;;;;;1.60;1.50;;;22.80;61.40;;;;;;4978387;28;20269;-73
2023/07/22 02:13:39;;;;;;;1.50;1.40;;;22.70;61.30;;;;;;4980403;28;20725;-73
2023/07/22 02:16:05;;;;;;;1.50;1.40;;;22.80;61.40;;;;;;4962314;28;20245;-73
2023/07/22 02:18:31;;;;;;;1.50;1.23;;;22.80;61.40;;;;;;4977523;28;20178;-72
2023/07/22 02:20:57;;;;;;;1.70;1.60;;;22.70;61.30;;;;;;4973728;28;20196;-72
2023/07/22 02:23:24;;;;;;;2.03;1.40;;;22.70;61.30;;;;;;4962505;28;20266;-72
2023/07/22 02:25:51;;;;;;;1.40;1.30;;;22.70;61.40;;;;;;4981586;28;20256;-72
2023/07/22 02:28:21;;;;;;;1.40;1.30;;;22.70;61.30;;;;;;4971883;28;20287;-72
2023/07/22 02:30:48;;;;;;;1.45;1.33;;;22.80;61.40;;;;;;4991059;28;20189;-72
2023/07/22 02:33:16;;;;;;;1.50;1.40;;;22.70;61.30;;;;;;4972731;28;20275;-72
2023/07/22 02:35:42;;;;;;;1.02;1.02;;;22.80;62.20;;;;;;4989939;28;20213;-72
2023/07/22 02:38:09;;;;;;;1.50;1.40;;;22.80;61.40;;;;;;4970111;28;20647;-72
2023/07/22 02:40:35;;;;;;;1.33;1.20;;;22.80;61.30;;;;;;4990076;28;20190;-72
2023/07/22 02:43:01;;;;;;;1.45;1.35;;;22.70;61.30;;;;;;4976906;28;20224;-72
2023/07/22 02:45:27;;;;;;;1.60;1.50;;;22.70;61.30;;;;;;4989971;28;20216;-72
2023/07/22 02:47:54;;;;;;;1.40;1.38;;;22.70;61.30;;;;;;4974645;28;20197;-73
2023/07/22 02:50:19;;;;;;;1.20;1.10;;;22.70;61.30;;;;;;4985204;28;20185;-73
2023/07/22 02:52:45;;;;;;;1.40;1.30;;;22.70;61.20;;;;;;4968575;28;20236;-73
2023/07/22 02:55:15;;;;;;;1.40;1.30;;;22.70;61.30;;;;;;4976792;28;20201;-72
2023/07/22 02:57:42;;;;;;;1.70;1.60;;;22.70;61.30;;;;;;4988333;28;20185;-72
2023/07/22 03:00:08;;;;;;;1.50;1.40;;;22.70;61.30;;;;;;4970126;28;20212;-72
2023/07/22 03:02:41;;;;;;;1.45;1.35;;;22.70;61.20;;;;;;4992547;28;20185;-73
2023/07/22 03:05:08;;;;;;;1.40;1.30;;;22.70;61.30;;;;;;4976788;28;20296;-72
2023/07/22 03:07:35;;;;;;;2.20;1.45;;;22.70;61.30;;;;;;4959513;28;20181;-73
2023/07/22 03:10:01;;;;;;;1.20;1.10;;;22.70;61.20;;;;;;4965239;28;20192;-73
2023/07/22 03:12:27;;;;;;;1.67;1.58;;;22.70;61.30;;;;;;4972105;28;20181;-73
2023/07/22 03:14:53;;;;;;;1.33;1.23;;;22.70;61.20;;;;;;4991769;28;20220;-73
2023/07/22 03:17:19;;;;;;;1.50;1.40;;;22.70;61.30;;;;;;4975589;28;20200;-73
2023/07/22 03:19:45;;;;;;;1.30;1.20;;;22.70;61.20;;;;;;4958643;28;20182;-73
2023/07/22 03:22:21;;;;;;;1.20;1.10;;;22.70;61.20;;;;;;4985923;28;20192;-73
2023/07/22 03:24:47;;;;;;;1.40;1.30;;;22.70;61.30;;;;;;4992481;28;20204;-73
2023/07/22 03:27:15;;;;;;;1.17;1.13;;;22.70;61.20;;;;;;4991256;28;20184;-72
2023/07/22 03:29:41;;;;;;;1.70;1.60;;;22.70;61.30;;;;;;4992330;28;20192;-73
2023/07/22 03:32:08;;;;;;;1.10;1.10;;;22.70;61.20;;;;;;4988707;28;20196;-73
2023/07/22 03:34:35;;;;;;;1.10;1.10;;;22.70;61.20;;;;;;4964037;28;20221;-73
2023/07/22 03:37:01;;;;;;;1.17;1.17;;;22.70;61.30;;;;;;4955824;28;20181;-72
2023/07/22 03:39:26;;;;;;;1.50;1.40;;;22.70;61.20;;;;;;4971808;28;20631;-72
2023/07/22 03:41:52;;;;;;;1.55;1.45;;;22.70;61.20;;;;;;4973502;28;20192;-72
2023/07/22 03:44:18;;;;;;;1.48;1.38;;;22.70;61.20;;;;;;4985965;28;20212;-72
2023/07/22 03:46:44;;;;;;;1.25;1.15;;;22.70;61.20;;;;;;4974982;28;20189;-72
2023/07/22 03:49:09;;;;;;;1.33;1.23;;;22.70;61.20;;;;;;4975443;28;20242;-72
2023/07/22 03:51:35;;;;;;;1.45;1.27;;;22.70;61.20;;;;;;4964655;28;20630;-72
2023/07/22 03:54:01;;;;;;;1.58;1.40;;;22.70;61.20;;;;;;4975091;28;20216;-72
2023/07/22 03:56:27;;;;;;;1.50;1.40;;;22.60;61.10;;;;;;4988195;28;20265;-72
2023/07/22 03:58:53;;;;;;;1.30;1.20;;;22.70;61.30;;;;;;4970439;28;20202;-72
2023/07/22 04:01:19;;;;;;;1.30;1.20;;;22.70;61.10;;;;;;4974249;28;20189;-72
2023/07/22 04:03:45;;;;;;;1.38;1.27;;;22.60;61.10;;;;;;4973188;28;20208;-72
2023/07/22 04:06:11;;;;;;;1.48;1.38;;;22.60;61.10;;;;;;4988261;28;20209;-72
2023/07/22 04:08:37;;;;;;;1.40;1.30;;;22.70;61.20;;;;;;4963353;28;20182;-72
2023/07/22 04:11:03;;;;;;;1.20;1.10;;;22.70;61.20;;;;;;4978945;28;20197;-72
2023/07/22 04:13:29;;;;;;;2.05;1.40;;;22.70;61.20;;;;;;4986878;28;20589;-72
2023/07/22 04:15:55;;;;;;;1.65;1.38;;;22.60;61.10;;;;;;4973859;28;20201;-72
2023/07/22 04:18:21;;;;;;;1.08;1.00;;;22.70;61.20;;;;;;4989513;28;20193;-73
2023/07/22 04:20:50;;;;;;;1.48;1.38;;;22.60;61.10;;;;;;4974148;28;20204;-72
2023/07/22 04:23:16;;;;;;;1.30;1.20;;;22.60;61.10;;;;;;4984891;28;20251;-72
2023/07/22 04:25:44;;;;;;;1.50;1.40;;;22.60;61.20;;;;;;4974827;28;20193;-72
2023/07/22 04:28:10;;;;;;;1.20;1.10;;;22.60;61.10;;;;;;4983241;28;20189;-72
2023/07/22 04:30:37;;;;;;;1.20;1.10;;;22.60;61.10;;;;;;4984550;28;20255;-73
2023/07/22 04:33:05;;;;;;;1.23;1.13;;;22.60;61.10;;;;;;4979556;28;20682;-72
2023/07/22 04:35:37;;;;;;;1.50;1.40;;;22.60;61.10;;;;;;4986559;28;20185;-73
2023/07/22 04:38:03;;;;;;;1.60;1.45;;;22.60;61.10;;;;;;4974575;28;20212;-72
2023/07/22 04:40:30;;;;;;;1.45;1.35;;;22.60;61.10;;;;;;4991392;28;20189;-73
2023/07/22 04:42:57;;;;;;;1.83;1.13;;;22.60;61.10;;;;;;4980554;28;20185;-72
2023/07/22 04:45:27;;;;;;;1.40;1.30;;;22.60;61.00;;;;;;4979503;28;20567;-72
2023/07/22 04:47:52;;;;;;;1.67;1.58;;;22.60;61.00;;;;;;4963939;28;20197;-73
2023/07/22 04:50:18;;;;;;;1.30;1.20;;;22.60;61.20;;;;;;4995787;28;20217;-73
2023/07/22 04:52:51;;;;;;;1.60;1.50;;;22.60;61.10;;;;;;4955809;28;20236;-72
2023/07/22 04:55:17;;;;;;;1.30;1.20;;;22.60;61.10;;;;;;4987531;28;20189;-73
2023/07/22 04:57:45;;;;;;;1.58;1.33;;;22.60;61.20;;;;;;4970173;28;20236;-71
2023/07/22 05:00:16;;;;;;;1.30;1.20;;;22.60;61.20;;;;;;4971067;28;20197;-73
2023/07/22 05:02:46;;;;;;;1.00;1.00;;;22.60;61.10;;;;;;4960107;28;20647;-73
2023/07/22 05:05:16;;;;;;;1.63;1.52;;;22.60;61.10;;;;;;4967512;28;20299;-72
2023/07/22 05:07:42;;;;;;;1.00;1.00;;;22.60;61.10;;;;;;4987023;28;20190;-72
2023/07/22 05:10:13;;;;;;;1.40;1.30;;;22.60;61.10;;;;;;4974294;28;20268;-72
2023/07/22 05:12:39;;;;;;;1.50;1.40;;;22.60;61.20;;;;;;4974726;28;20197;-73
2023/07/22 05:15:06;;;;;;;1.38;1.27;;;22.60;61.20;;;;;;4979058;28;20211;-72
2023/07/22 05:17:32;;;;;;;1.52;1.42;;;22.60;61.20;;;;;;4954553;28;20185;-73
2023/07/22 05:19:58;;;;;;;1.40;1.30;;;22.60;61.20;;;;;;4979046;28;20189;-72
2023/07/22 05:22:24;;;;;;;1.23;1.13;;;22.60;62.00;;;;;;4979125;28;20197;-73
2023/07/22 05:24:51;;;;;;;1.23;1.17;;;22.50;61.10;;;;;;4965295;28;20606;-72
2023/07/22 05:27:17;;;;;;;1.50;1.40;;;22.50;61.10;;;;;;4979930;28;20575;-72
2023/07/22 05:29:44;;;;;;;1.50;1.40;;;22.50;61.10;;;;;;4982195;28;20184;-73
2023/07/22 05:32:11;;;;;;;1.40;1.30;;;22.50;61.10;;;;;;4966306;28;20572;-73
2023/07/22 05:34:37;;;;;;;1.77;1.45;;;22.60;61.20;;;;;;4963367;28;20281;-73
2023/07/22 05:37:03;;;;;;;1.33;1.23;;;22.60;61.30;;;;;;4963107;28;20190;-72
2023/07/22 05:39:29;;;;;;;1.40;1.30;;;22.50;61.20;;;;;;4990095;28;20192;-73
2023/07/22 05:41:55;;;;;;;1.45;1.35;;;22.50;61.20;;;;;;4989739;28;20184;-72
2023/07/22 05:44:22;;;;;;;1.40;1.30;;;22.60;61.30;;;;;;4989910;28;20236;-72
2023/07/22 05:46:47;;;;;;;1.40;1.30;;;22.60;61.30;;;;;;4981644;28;20193;-72
2023/07/22 05:49:13;;;;;;;1.42;1.33;;;22.60;61.30;;;;;;4973628;28;20193;-72
2023/07/22 05:51:39;;;;;;;1.95;1.42;;;22.60;61.40;;;;;;4990399;28;20223;-73
2023/07/22 05:54:05;;;;;;;1.33;1.23;;;22.50;61.30;;;;;;4973683;28;20248;-73
2023/07/22 05:56:31;;;;;;;1.10;1.10;;;22.50;61.30;;;;;;4975324;28;20185;-73
2023/07/22 05:58:57;;;;;;;1.33;1.23;;;22.50;61.30;;;;;;4985101;28;20193;-72
2023/07/22 06:01:26;;;;;;;1.25;1.15;;;22.60;61.40;;;;;;4977743;28;20188;-72
2023/07/22 06:03:51;;;;;;;1.40;1.30;;;22.60;61.40;;;;;;4977126;28;20217;-73
2023/07/22 06:06:18;;;;;;;1.25;1.15;;;22.60;61.40;;;;;;4986044;28;20181;-73
2023/07/22 06:08:44;;;;;;;1.50;1.40;;;22.60;61.50;;;;;;4991394;28;20191;-73
2023/07/22 06:11:10;;;;;;;1.30;1.20;;;22.60;61.40;;;;;;5000500;28;20201;-73
2023/07/22 06:13:35;;;;;;;1.33;1.23;;;22.60;61.50;;;;;;4973214;28;20216;-73
2023/07/22 06:16:02;;;;;;;1.42;1.33;;;22.60;61.40;;;;;;4989085;28;20186;-73
2023/07/22 06:18:28;;;;;;;1.30;1.20;;;22.60;61.40;;;;;;4973198;28;20269;-73
2023/07/22 06:20:54;;;;;;;1.38;1.27;;;22.60;61.40;;;;;;4971475;28;20234;-74
2023/07/22 06:23:20;;;;;;;1.10;1.10;;;22.60;61.40;;;;;;4988596;28;20240;-74
2023/07/22 06:25:46;;;;;;;1.60;1.50;;;22.60;61.40;;;;;;4985003;28;20189;-74
2023/07/22 06:28:11;;;;;;;1.98;1.40;;;22.70;62.40;;;;;;4984832;28;20224;-75
2023/07/22 06:30:37;;;;;;;1.50;1.40;;;22.70;61.50;;;;;;4982476;28;20308;-72
2023/07/22 06:33:03;;;;;;;1.55;1.35;;;22.70;61.60;;;;;;4987653;28;20216;-73
2023/07/22 06:35:29;;;;;;;1.40;1.30;;;22.60;61.60;;;;;;4967291;28;20189;-73
2023/07/22 06:37:54;;;;;;;1.48;1.38;;;22.70;61.60;;;;;;4972567;28;20192;-73
2023/07/22 06:40:20;;;;;;;1.58;1.48;;;22.70;61.60;;;;;;4979733;28;20180;-73
2023/07/22 06:42:46;;;;;;;1.50;1.40;;;22.70;61.60;;;;;;4962482;28;20546;-73
2023/07/22 06:45:12;;;;;;;1.40;1.30;;;22.60;61.50;;;;;;4977613;28;20557;-73
2023/07/22 06:47:37;;;;;;;2.20;1.38;;;22.70;61.60;;;;;;4966746;28;20182;-73
2023/07/22 06:50:04;;;;;;;1.52;1.38;;;22.70;61.70;;;;;;4965066;28;20677;-73
2023/07/22 06:52:32;;;;;;;1.50;1.40;;;22.60;61.60;;;;;;4982550;28;20189;-73
2023/07/22 06:54:57;;;;;;;1.27;1.17;;;22.70;62.50;;;;;;4989826;28;20228;-73
2023/07/22 06:57:25;;;;;;;1.30;1.20;;;22.60;61.60;;;;;;4985006;28;20185;-73
2023/07/22 06:59:55;;;;;;;1.33;1.23;;;22.70;61.60;;;;;;4981563;28;20248;-72
2023/07/22 07:02:21;;;;;;;1.40;1.30;;;22.60;61.50;;;;;;4985726;28;20193;-73
2023/07/22 07:04:48;;;;;;;1.50;1.40;;;22.70;61.60;;;;;;4982807;28;20210;-72
2023/07/22 07:07:14;;;;;;;1.63;1.42;;;22.60;61.60;;;;;;4980731;28;20196;-73
2023/07/22 07:09:40;;;;;;;1.45;1.35;;;22.70;61.70;;;;;;4986035;28;20220;-72
2023/07/22 07:12:07;;;;;;;1.70;1.60;;;22.70;61.70;;;;;;4971939;28;20239;-72
2023/07/22 07:14:33;;;;;;;1.92;1.45;;;22.60;61.50;;;;;;4974310;28;20224;-72
2023/07/22 07:17:00;;;;;;;1.67;1.40;;;22.70;61.60;;;;;;4965961;28;20690;-72
2023/07/22 07:19:27;;;;;;;1.70;1.60;;;22.70;61.60;;;;;;4984686;28;20205;-71
2023/07/22 07:21:53;;;;;;;1.45;1.35;;;22.70;61.60;;;;;;4989687;28;20192;-72
2023/07/22 07:24:19;;;;;;;1.42;1.33;;;22.60;61.50;;;;;;4987185;28;20216;-72
2023/07/22 07:26:45;;;;;;;1.50;1.40;;;22.70;61.50;;;;;;4983181;28;20196;-72
2023/07/22 07:29:11;;;;;;;1.42;1.33;;;22.60;61.40;;;;;;4963568;28;20209;-72
2023/07/22 07:31:38;;;;;;;1.30;1.20;;;22.70;61.50;;;;;;4987565;28;20265;-72
2023/07/22 07:34:04;;;;;;;1.27;1.17;;;22.70;61.40;;;;;;4987478;28;20360;-72
2023/07/22 07:36:31;;;;;;;1.35;1.25;;;22.70;61.30;;;;;;4976921;28;20272;-71
2023/07/22 07:38:57;;;;;;;1.00;1.00;;;22.70;61.40;;;;;;4971823;28;20185;-73
2023/07/22 07:41:23;;;;;;;1.60;1.50;;;22.70;61.30;;;;;;4975184;28;20239;-72
2023/07/22 07:43:49;;;;;;;1.33;1.23;;;22.60;61.20;;;;;;4975076;28;20208;-72
2023/07/22 07:46:22;;;;;;;1.33;1.23;;;22.70;61.30;;;;;;4963730;28;20193;-72
2023/07/22 07:48:57;;;;;;;1.38;1.27;;;22.70;61.20;;;;;;4970329;28;20191;-72
2023/07/22 07:51:26;;;;;;;1.52;1.42;;;22.70;61.30;;;;;;4971758;28;20189;-72
2023/07/22 07:53:54;;;;;;;1.55;1.45;;;22.70;61.10;;;;;;4972554;28;20216;-72
2023/07/22 07:56:23;;;;;;;1.73;1.63;;;22.70;61.20;;;;;;4962354;28;20186;-72
2023/07/22 07:58:50;;;;;;;1.50;1.40;;;22.70;61.10;;;;;;4989554;28;20261;-72
2023/07/22 08:01:17;;;;;;;1.60;1.42;;;22.70;61.00;;;;;;4967269;28;20416;-72
2023/07/22 08:03:45;;;;;;;1.30;1.20;;;22.70;61.00;;;;;;4992148;28;20217;-73
2023/07/22 08:06:12;;;;;;;1.50;1.40;;;22.70;60.80;;;;;;4965822;28;20683;-72
2023/07/22 08:08:40;;;;;;;1.70;1.50;;;22.70;60.70;;;;;;4977886;28;20189;-72
2023/07/22 08:11:07;;;;;;;1.45;1.35;;;22.70;60.60;;;;;;4986338;28;20674;-72
2023/07/22 08:13:35;;;;;;;1.20;1.10;;;22.70;60.70;;;;;;4985516;28;20216;-72
2023/07/22 08:16:04;;;;;;;1.17;1.10;;;22.70;60.70;;;;;;4962199;28;20248;-72
2023/07/22 08:18:31;;;;;;;2.13;1.52;;;22.70;60.50;;;;;;4978261;28;20273;-72
2023/07/22 08:20:58;;;;;;;1.52;1.42;;;22.70;60.40;;;;;;4956300;28;20204;-72
2023/07/22 08:23:24;;;;;;;1.50;1.40;;;22.70;60.40;;;;;;4981597;28;20224;-72
2023/07/22 08:25:50;;;;;;;1.20;1.13;;;22.80;60.20;;;;;;4970764;28;20217;-73
2023/07/22 08:28:17;;;;;;;1.30;1.20;;;22.80;60.50;;;;;;4963637;28;20232;-73
2023/07/22 08:30:44;;;;;;;1.40;1.30;;;22.80;60.10;;;;;;4985379;28;20189;-72
2023/07/22 08:33:14;;;;;;;1.02;1.02;;;22.80;60.30;;;;;;4969391;28;20729;-71
2023/07/22 08:35:40;;;;;;;1.27;1.17;;;22.80;60.40;;;;;;4985939;28;20221;-72
2023/07/22 08:38:08;;;;;;;1.40;1.30;;;22.80;60.50;;;;;;4978403;28;20198;-73
2023/07/22 08:40:39;;;;;;;1.63;1.30;;;22.80;60.60;;;;;;4980705;28;20218;-71
2023/07/22 08:43:09;;;;;;;1.38;1.27;;;22.80;60.50;;;;;;4978685;28;20186;-71
2023/07/22 08:45:40;;;;;;;1.40;1.30;;;22.70;60.40;;;;;;4986650;28;20181;-71
2023/07/22 08:48:09;;;;;;;2.35;1.27;;;22.80;60.40;;;;;;4958473;28;20671;-71
2023/07/22 08:50:52;;;;;;;1.27;1.17;;;22.80;60.30;;;;;;4962039;28;20545;-72
2023/07/22 08:53:19;;;;;;;1.42;1.33;;;22.80;60.20;;;;;;4961572;28;20232;-69
2023/07/22 08:55:46;;;;;;;1.40;1.30;;;22.80;60.40;;;;;;4974696;28;20243;-71
2023/07/22 08:58:12;;;;;;;1.52;1.40;;;22.80;59.80;;;;;;4971195;28;20192;-72
2023/07/22 09:00:40;;;;;;;1.30;1.20;;;22.90;60.10;;;;;;4978130;28;20187;-72
2023/07/22 09:03:06;;;;;;;3.42;1.30;;;22.80;59.80;;;;;;4989808;28;20219;-70
2023/07/22 09:05:34;;;;;;;1.73;1.30;;;22.90;59.90;;;;;;4979271;28;20272;-70
2023/07/22 09:08:03;;;;;;;1.48;1.38;;;22.90;59.60;;;;;;4956500;28;20193;-70
2023/07/22 09:10:30;;;;;;;1.60;1.50;;;22.90;59.70;;;;;;4969575;28;20174;-69
2023/07/22 09:12:56;;;;;;;1.23;1.13;;;22.90;59.80;;;;;;4970494;28;20239;-70
2023/07/22 09:15:24;;;;;;;1.40;1.30;;;22.90;59.70;;;;;;4963492;28;20181;-70
2023/07/22 09:17:50;;;;;;;1.50;1.40;;;22.90;59.90;;;;;;4983076;28;20192;-70
2023/07/22 09:20:16;;;;;;;2.17;1.23;;;22.90;59.90;;;;;;4989087;28;20263;-70
2023/07/22 09:22:51;;;;;;;2.10;1.52;;;22.90;59.90;;;;;;4974888;28;20215;-69
2023/07/22 09:25:28;;;;;;;1.25;1.15;;;22.90;59.90;;;;;;4972961;28;20199;-70
2023/07/22 09:27:59;;;;;;;1.30;1.20;;;22.90;59.70;;;;;;4971802;28;20203;-69
2023/07/22 09:30:39;;;;;;;1.50;1.40;;;22.80;59.50;;;;;;4962095;28;20196;-70
2023/07/22 09:33:19;;;;;;;1.88;1.70;;;22.90;59.60;;;;;;4962165;28;20197;-71
2023/07/22 09:35:49;;;;;;;1.40;1.30;;;22.90;59.70;;;;;;4970286;28;20212;-70
2023/07/22 09:38:24;;;;;;;1.50;1.40;;;22.90;59.70;;;;;;4983527;28;20193;-70
2023/07/22 09:40:50;;;;;;;1.30;1.20;;;22.80;59.70;;;;;;4961188;28;20185;-70
2023/07/22 09:43:16;;;;;;;1.50;1.40;;;22.80;59.60;;;;;;4969885;28;20271;-70
2023/07/22 09:45:46;;;;;;;1.30;1.20;;;22.80;59.70;;;;;;4979185;28;20197;-70
2023/07/22 09:48:12;;;;;;;1.35;1.25;;;22.80;59.50;;;;;;4975341;28;20297;-70
2023/07/22 09:50:38;;;;;;;1.75;1.25;;;22.80;59.60;;;;;;4954483;28;20613;-70
2023/07/22 09:53:05;;;;;;;1.45;1.35;;;22.90;59.60;;;;;;4982026;28;20204;-70
2023/07/22 09:55:33;;;;;;;1.40;1.30;;;22.90;59.50;;;;;;4960945;28;20196;-70
2023/07/22 09:58:02;;;;;;;1.33;1.17;;;22.90;59.40;;;;;;4983559;28;20192;-69
2023/07/22 10:00:33;;;;;;;2.28;1.50;;;22.90;59.50;;;;;;4972702;28;20726;-73
2023/07/22 10:03:01;;;;;;;1.50;1.38;;;22.90;59.20;;;;;;4988915;28;20193;-73
2023/07/22 10:05:29;;;;;;;1.67;1.50;;;22.90;59.20;;;;;;4986155;28;20622;-72
2023/07/22 10:07:59;;;;;;;1.63;1.15;;;22.90;59.00;;;;;;4966826;28;20189;-72
2023/07/22 10:10:39;;;;;;;1.20;1.20;;;22.90;59.00;;;;;;4955065;28;20200;-73
2023/07/22 10:13:05;;;;;;;1.42;1.33;;;22.90;59.20;;;;;;4969211;28;20576;-72
2023/07/22 10:15:35;;;;;;;1.60;1.50;;;22.90;59.10;;;;;;4970430;28;20240;-72
2023/07/22 10:18:05;;;;;;;1.45;1.35;;;22.90;59.20;;;;;;4983524;28;20237;-73
2023/07/22 10:20:34;;;;;;;1.90;1.45;;;22.90;59.20;;;;;;4972703;28;20200;-72
2023/07/22 10:23:01;;;;;;;2.78;1.20;;;22.90;59.20;;;;;;4973065;28;20189;-72
2023/07/22 10:25:26;;;;;;;2.22;1.40;;;22.90;59.00;;;;;;4987563;28;20194;-72
2023/07/22 10:27:54;;;;;;;1.10;1.10;;;22.90;59.20;;;;;;4972111;28;20199;-73
2023/07/22 10:30:20;;;;;;;1.50;1.40;;;22.90;59.00;;;;;;4964506;28;20220;-72
2023/07/22 10:32:49;;;;;;;1.30;1.20;;;22.90;59.10;;;;;;4972797;28;20259;-72
2023/07/22 10:35:31;;;;;;;1.85;1.20;;;22.90;59.10;;;;;;4976092;28;20232;-73
2023/07/22 10:38:17;;;;;;;1.23;1.15;;;22.90;59.00;;;;;;4974621;28;20255;-73
2023/07/22 10:40:51;;;;;;;1.52;1.40;;;22.90;59.00;;;;;;4971184;28;20200;-73
2023/07/22 10:43:26;;;;;;;1.05;1.05;;;22.90;58.80;;;;;;4975171;28;20303;-73
2023/07/22 10:45:57;;;;;;;1.70;1.25;;;22.90;59.00;;;;;;4968066;28;20200;-72
2023/07/22 10:48:37;;;;;;;1.70;1.25;;;22.90;59.10;;;;;;4976909;28;20221;-73
2023/07/22 10:51:09;;;;;;;1.45;1.10;;;23.00;59.20;;;;;;4976019;28;20193;-73
2023/07/22 10:53:47;;;;;;;1.38;1.27;;;22.90;59.10;;;;;;4957619;28;20222;-74
2023/07/22 10:56:18;;;;;;;1.63;1.40;;;22.90;59.10;;;;;;4971959;28;20736;-75
2023/07/22 10:58:44;;;;;;;1.45;1.35;;;22.90;59.00;;;;;;4983575;28;20231;-72
2023/07/22 11:01:28;;;;;;;1.52;1.10;;;22.90;59.10;;;;;;4995613;28;20189;-72
2023/07/22 11:04:16;;;;;;;1.80;1.50;;;22.90;58.80;;;;;;4975784;28;20219;-73
2023/07/22 11:06:48;;;;;;;1.83;1.55;;;22.90;59.00;;;;;;4963969;28;20186;-72
2023/07/22 11:09:30;;;;;;;1.50;1.40;;;22.90;59.00;;;;;;4975693;28;20283;-70
2023/07/22 11:12:08;;;;;;;1.50;1.40;;;22.90;59.20;;;;;;4970737;28;20252;-70
2023/07/22 11:14:38;;;;;;;1.45;1.35;;;22.90;59.10;;;;;;4975564;28;20216;-70
2023/07/22 11:17:10;;;;;;;1.10;1.10;;;22.90;59.10;;;;;;4987689;28;20205;-70
2023/07/22 11:19:37;;;;;;;1.58;1.48;;;23.00;59.20;;;;;;4972343;28;20204;-70
2023/07/22 11:22:05;;;;;;;1.40;1.30;;;23.00;59.30;;;;;;4986354;28;20192;-71
2023/07/22 11:24:35;;;;;;;2.00;1.40;;;22.90;59.10;;;;;;4980551;28;20212;-70
2023/07/22 11:27:05;;;;;;;1.58;1.48;;;23.00;59.30;;;;;;4979423;28;20239;-71
2023/07/22 11:29:31;;;;;;;2.75;1.50;;;22.90;59.00;;;;;;4965778;28;20189;-71
2023/07/22 11:31:57;;;;;;;1.63;1.40;;;23.00;59.20;;;;;;4976956;28;20184;-72
2023/07/22 11:34:24;;;;;;;1.45;1.33;;;22.90;58.90;;;;;;4974735;28;20239;-73
2023/07/22 11:36:53;;;;;;;1.45;1.35;;;23.00;58.90;;;;;;4971557;28;20667;-73
2023/07/22 11:39:23;;;;;;;1.30;1.20;;;23.00;59.10;;;;;;4967588;28;20640;-73
2023/07/22 11:41:51;;;;;;;1.40;1.30;;;23.00;59.00;;;;;;4975635;28;20193;-74
2023/07/22 11:44:26;;;;;;;1.67;1.58;;;23.00;59.00;;;;;;4987938;28;20272;-73
2023/07/22 11:47:03;;;;;;;1.60;1.50;;;23.00;59.10;;;;;;4966951;28;20189;-75
2023/07/22 11:49:38;;;;;;;1.40;1.30;;;23.00;59.10;;;;;;4972788;28;20197;-72
2023/07/22 11:52:10;;;;;;;1.75;1.25;;;23.00;59.00;;;;;;4991715;28;20188;-72
2023/07/22 11:54:39;;;;;;;1.27;1.17;;;23.00;59.00;;;;;;4973801;28;20225;-73
2023/07/22 11:57:23;;;;;;;1.40;1.30;;;23.00;58.90;;;;;;4974436;28;20193;-73
2023/07/22 11:59:51;;;;;;;1.63;1.52;;;23.00;58.90;;;;;;4979744;28;20194;-72
2023/07/22 12:02:18;;;;;;;1.42;1.33;;;23.00;58.90;;;;;;4970208;28;20181;-72
2023/07/22 12:05:05;;;;;;;1.55;1.45;;;23.00;58.90;;;;;;4966181;28;20591;-73
2023/07/22 12:07:37;;;;;;;1.50;1.40;;;23.00;59.00;;;;;;4973093;28;20197;-73
2023/07/22 12:10:06;;;;;;;1.40;1.30;;;23.00;58.90;;;;;;4990671;28;20263;-72
2023/07/22 12:12:36;;;;;;;2.15;1.65;;;23.00;59.00;;;;;;4989475;28;20199;-73
2023/07/22 12:15:13;;;;;;;1.50;1.40;;;23.00;58.80;;;;;;4975826;28;20239;-75
2023/07/22 12:18:01;;;;;;;1.60;1.50;;;23.00;59.10;;;;;;4972277;28;20200;-72
2023/07/22 12:20:33;;;;;;;2.38;1.60;;;23.00;59.00;;;;;;4958102;28;20244;-71
2023/07/22 12:23:00;;;;;;;1.70;1.50;;;23.00;58.90;;;;;;4955013;28;20193;-73
2023/07/22 12:25:26;;;;;;;1.65;1.40;;;23.00;58.80;;;;;;4970989;28;20271;-75
2023/07/22 12:27:52;;;;;;;1.30;1.20;;;23.00;58.60;;;;;;4982276;28;20189;-72
2023/07/22 12:30:18;;;;;;;1.50;1.40;;;23.00;58.50;;;;;;4978976;28;20192;-72
2023/07/22 12:32:44;;;;;;;1.30;1.20;;;23.00;58.80;;;;;;4989878;28;20235;-72
2023/07/22 12:35:10;;;;;;;1.50;1.40;;;23.00;58.70;;;;;;4990655;28;20623;-72
2023/07/22 12:37:36;;;;;;;1.60;1.50;;;23.00;58.60;;;;;;4980287;28;20264;-72
2023/07/22 12:40:07;;;;;;;1.40;1.30;;;23.00;58.90;;;;;;4963024;28;20190;-72
2023/07/22 12:42:35;;;;;;;1.88;1.40;;;23.00;58.70;;;;;;4971096;28;20189;-73
2023/07/22 12:45:03;;;;;;;1.63;1.50;;;23.00;58.50;;;;;;4983439;28;20713;-75
2023/07/22 12:47:29;;;;;;;1.70;1.60;;;23.00;58.50;;;;;;4969534;28;20196;-76
2023/07/22 12:49:55;;;;;;;1.50;1.40;;;23.00;58.70;;;;;;4962821;28;20194;-72
2023/07/22 12:52:20;;;;;;;1.75;1.65;;;23.00;58.40;;;;;;4969631;28;20193;-72